LFBL/LIG METAR and TAF weather

Enter ICAO airport designator
Station Type Date Time Source
LFBL METAR 2024/06/14 22:30 UTC NOAA

LFBL 142230Z AUTO 23008KT 9999 -RA BKN009/// OVC014/// ///TCU 12/12 Q1012 BECMG BKN020


Station Type Date Time Source
LFBL Decoded METAR 2024/06/14 22:30 UTC NOAA

Limoges, France (LFBL) 45-52N 001-11E 402M
Jun 14, 2024 - 06:30 PM EDT / 2024.06.14 2230 UTC
Wind: from the SW (230 degrees) at 9 MPH (8 KT):0
Visibility: greater than 7 mile(s):0
Sky conditions: overcast
Weather: light rain; Towering cumulus clouds observed
Temperature: 53 F (12 C)
Dew Point: 53 F (12 C)
Relative Humidity: 100%
Pressure (altimeter): 29.88 in. Hg (1012 hPa)
ob: LFBL 142230Z AUTO 23008KT 9999 -RA BKN009/// OVC014/// ///TCU 12/12 Q1012 BECMG BKN020
cycle: 22

Station Type Date Time Source
LFBL TAF 2024/06/14 20:52 UTC NOAA